Time;durP1;ratioP1;P1;durP2;ratioP2;P2;SDS_P1;SDS_P2;PMS_P1;PMS_P2;Temp;Humidity;BMP_temperature;BMP_pressure;BME280_temperature;BME280_humidity;BME280_pressure;Samples;Min_cycle;Max_cycle;Signal;HPM_P1;HPM_P2
2022/12/06 00:01:41;;;;;;;0.93;0.93;;;4.10;99.90;;;;;;5135755;27;20859;-79
2022/12/06 00:04:11;;;;;;;0.43;0.43;;;4.10;99.90;;;;;;5134856;27;20514;-79
2022/12/06 00:06:39;;;;;;;0.60;0.30;;;4.10;99.90;;;;;;5134720;27;20467;-79
2022/12/06 00:09:06;;;;;;;0.47;0.33;;;4.00;99.90;;;;;;5134496;27;20981;-79
2022/12/06 00:11:35;;;;;;;0.40;0.40;;;4.00;99.90;;;;;;5134784;27;20474;-79
2022/12/06 00:14:04;;;;;;;0.40;0.37;;;4.10;99.90;;;;;;5134600;27;20557;-79
2022/12/06 00:16:33;;;;;;;0.40;0.40;;;4.00;99.90;;;;;;5134255;27;20883;-79
2022/12/06 00:19:01;;;;;;;0.50;0.50;;;4.00;99.90;;;;;;5134607;27;20522;-79
2022/12/06 00:21:30;;;;;;;0.50;0.50;;;4.00;99.90;;;;;;5134234;27;20569;-79
2022/12/06 00:23:58;;;;;;;0.30;0.30;;;3.90;99.90;;;;;;5134583;27;20447;-79
2022/12/06 00:26:25;;;;;;;0.40;0.40;;;4.00;99.90;;;;;;5134165;27;20545;-79
2022/12/06 00:28:53;;;;;;;0.97;0.97;;;4.00;99.90;;;;;;5134499;27;20807;-79
2022/12/06 00:31:22;;;;;;;0.60;0.30;;;4.00;99.90;;;;;;5134190;27;20470;-79
2022/12/06 00:33:51;;;;;;;0.50;0.50;;;4.00;99.90;;;;;;5134338;27;20569;-79
2022/12/06 00:36:20;;;;;;;0.43;0.43;;;4.00;99.90;;;;;;5134371;27;20553;-79
2022/12/06 00:38:47;;;;;;;0.50;0.50;;;3.90;99.90;;;;;;5134383;27;20529;-79
2022/12/06 00:41:15;;;;;;;0.30;0.30;;;3.90;99.90;;;;;;5134390;27;20569;-79
2022/12/06 00:43:43;;;;;;;0.50;0.50;;;4.00;99.90;;;;;;5134357;27;20474;-79
2022/12/06 00:46:13;;;;;;;0.40;0.40;;;4.00;99.90;;;;;;5134247;27;20541;-79
2022/12/06 00:48:39;;;;;;;0.30;0.20;;;3.90;99.90;;;;;;5134008;27;20493;-79
2022/12/06 00:51:08;;;;;;;1.13;0.40;;;3.90;99.90;;;;;;5134267;27;20479;-79
2022/12/06 00:53:35;;;;;;;0.73;0.70;;;3.80;99.90;;;;;;5134219;27;20561;-79
2022/12/06 00:56:02;;;;;;;0.53;0.53;;;3.80;99.90;;;;;;5133870;27;20471;-79
2022/12/06 00:58:28;;;;;;;0.40;0.40;;;3.80;99.90;;;;;;5134212;27;20482;-79
2022/12/06 01:00:55;;;;;;;0.53;0.53;;;3.80;99.90;;;;;;5134188;27;20518;-79
2022/12/06 01:03:22;;;;;;;0.60;0.53;;;3.70;99.90;;;;;;5134201;27;20449;-79
2022/12/06 01:05:50;;;;;;;0.40;0.40;;;3.70;99.90;;;;;;5133759;27;20498;-79
2022/12/06 01:08:20;;;;;;;0.40;0.33;;;3.70;99.90;;;;;;5136762;27;20473;-79
2022/12/06 01:10:53;;;;;;;1.13;1.03;;;3.70;99.90;;;;;;5138228;27;20472;-79
2022/12/06 01:13:19;;;;;;;0.60;0.57;;;3.60;99.90;;;;;;5138124;27;20462;-79
2022/12/06 01:15:46;;;;;;;0.30;0.30;;;3.60;99.90;;;;;;5138060;27;20474;-79
2022/12/06 01:18:13;;;;;;;0.30;0.30;;;3.50;99.90;;;;;;5137774;27;20457;-79
2022/12/06 01:20:40;;;;;;;0.30;0.30;;;3.50;99.90;;;;;;5137518;27;20994;-79
2022/12/06 01:23:07;;;;;;;0.40;0.40;;;3.50;99.90;;;;;;5138024;27;20516;-79
2022/12/06 01:25:35;;;;;;;0.33;0.30;;;3.40;99.90;;;;;;5137924;27;20462;-79
2022/12/06 01:28:01;;;;;;;0.60;0.50;;;3.40;99.90;;;;;;5137920;27;20425;-79
2022/12/06 01:30:29;;;;;;;0.93;0.93;;;3.40;99.90;;;;;;5137532;27;20816;-79
2022/12/06 01:32:55;;;;;;;0.50;0.50;;;3.30;99.90;;;;;;5137732;27;20479;-79
2022/12/06 01:35:22;;;;;;;1.80;0.73;;;3.40;99.90;;;;;;5137629;27;20458;-79
2022/12/06 01:37:49;;;;;;;0.30;0.30;;;3.40;99.90;;;;;;5137688;27;20434;-79
2022/12/06 01:40:16;;;;;;;0.40;0.30;;;3.30;99.90;;;;;;5137648;27;20434;-79
2022/12/06 01:42:44;;;;;;;0.60;0.60;;;3.40;99.90;;;;;;5137572;27;20439;-78
2022/12/06 01:45:11;;;;;;;0.87;0.77;;;3.40;99.90;;;;;;5137491;27;20462;-79
2022/12/06 01:47:41;;;;;;;0.37;0.33;;;3.40;99.90;;;;;;5137543;27;20435;-79
2022/12/06 01:50:14;;;;;;;0.77;0.40;;;3.50;99.90;;;;;;5137501;27;20427;-79
2022/12/06 01:52:49;;;;;;;0.30;0.30;;;3.40;99.90;;;;;;5137054;27;20842;-79
2022/12/06 01:55:18;;;;;;;0.40;0.40;;;3.40;99.90;;;;;;5137318;27;20469;-79
2022/12/06 01:57:47;;;;;;;0.77;0.50;;;3.50;99.90;;;;;;5137349;27;20446;-79
2022/12/06 02:00:14;;;;;;;0.40;0.40;;;3.50;99.90;;;;;;5137244;27;20494;-79
2022/12/06 02:02:41;;;;;;;1.00;0.60;;;3.50;99.90;;;;;;5136888;27;20919;-79
2022/12/06 02:05:09;;;;;;;0.90;0.80;;;3.50;99.90;;;;;;5137091;27;20474;-79
2022/12/06 02:07:37;;;;;;;0.40;0.30;;;3.50;99.90;;;;;;5136788;27;20968;-79
2022/12/06 02:10:05;;;;;;;0.43;0.43;;;3.50;99.90;;;;;;5137072;27;20446;-79
2022/12/06 02:12:31;;;;;;;0.60;0.60;;;3.40;99.90;;;;;;5136895;27;20454;-79
2022/12/06 02:15:00;;;;;;;0.30;0.30;;;3.50;99.90;;;;;;5136576;27;20474;-79
2022/12/06 02:17:35;;;;;;;0.40;0.40;;;3.50;99.90;;;;;;5136598;27;20964;-78
2022/12/06 02:20:12;;;;;;;0.60;0.60;;;3.50;99.90;;;;;;5135852;27;20801;-79
2022/12/06 02:23:10;;;;;;;0.43;0.43;;;3.60;99.90;;;;;;5136878;27;20422;-79
2022/12/06 02:25:52;;;;;;;0.60;0.60;;;3.60;99.90;;;;;;5136797;27;20477;-79
2022/12/06 02:28:57;;;;;;;3.03;1.33;;;3.70;99.90;;;;;;5136464;27;20453;-79
2022/12/06 02:31:30;;;;;;;1.67;0.53;;;3.70;99.90;;;;;;5110107;27;20445;-79
2022/12/06 02:34:02;;;;;;;0.40;0.37;;;3.70;99.90;;;;;;5136591;27;20473;-79
2022/12/06 02:36:32;;;;;;;0.83;0.40;;;3.80;99.90;;;;;;5136552;27;20463;-79
2022/12/06 02:39:05;;;;;;;0.60;0.37;;;3.80;99.90;;;;;;5136562;27;20431;-79
2022/12/06 02:41:38;;;;;;;0.50;0.33;;;3.70;99.90;;;;;;5136215;27;20438;-79
2022/12/06 02:44:07;;;;;;;0.60;0.60;;;3.60;99.90;;;;;;5136136;27;20924;-79
2022/12/06 02:46:37;;;;;;;0.30;0.30;;;3.60;99.90;;;;;;5135951;27;20814;-79
2022/12/06 02:49:07;;;;;;;0.50;0.40;;;3.60;99.90;;;;;;5136274;27;20453;-79
2022/12/06 02:51:36;;;;;;;0.60;0.50;;;3.70;99.90;;;;;;5136313;27;20829;-79
2022/12/06 02:54:06;;;;;;;0.40;0.40;;;3.60;99.90;;;;;;5135829;27;20985;-78
2022/12/06 02:56:34;;;;;;;1.90;0.57;;;3.60;99.90;;;;;;5135767;27;20458;-79
2022/12/06 02:59:01;;;;;;;0.30;0.20;;;3.60;99.90;;;;;;5135780;27;20442;-79
2022/12/06 03:01:31;;;;;;;0.47;0.47;;;3.60;99.90;;;;;;5136062;27;20454;-79
2022/12/06 03:04:45;;;;;;;0.70;0.40;;;3.70;99.90;;;;;;5135718;27;20922;-79
2022/12/06 03:07:24;;;;;;;3.43;0.53;;;3.70;99.90;;;;;;5135945;27;20452;-79
2022/12/06 03:10:03;;;;;;;1.80;0.77;;;3.70;99.90;;;;;;5135944;27;20442;-79
2022/12/06 03:12:36;;;;;;;0.67;0.67;;;3.70;99.90;;;;;;5135918;27;20427;-79
2022/12/06 03:15:10;;;;;;;0.60;0.50;;;3.70;99.90;;;;;;5135665;27;20490;-79
2022/12/06 03:17:42;;;;;;;0.30;0.30;;;3.60;99.90;;;;;;5135785;27;20804;-79
2022/12/06 03:20:15;;;;;;;0.40;0.40;;;3.70;99.90;;;;;;5135241;27;20442;-79
2022/12/06 03:22:47;;;;;;;2.63;0.50;;;3.70;99.90;;;;;;5135717;27;20431;-79
2022/12/06 03:25:14;;;;;;;0.30;0.30;;;3.70;99.90;;;;;;5135556;27;20471;-79
2022/12/06 03:27:44;;;;;;;0.40;0.30;;;3.50;99.90;;;;;;5135578;27;20508;-79
2022/12/06 03:30:13;;;;;;;0.30;0.30;;;3.50;99.90;;;;;;5135146;27;20941;-79
2022/12/06 03:32:44;;;;;;;1.43;0.70;;;3.50;99.90;;;;;;5135488;27;20443;-79
2022/12/06 03:35:17;;;;;;;1.60;0.50;;;3.50;99.90;;;;;;5135308;27;20482;-79
2022/12/06 03:37:49;;;;;;;0.47;0.27;;;3.50;99.90;;;;;;5135385;27;20431;-79
2022/12/06 03:40:20;;;;;;;0.40;0.40;;;3.50;99.90;;;;;;5135352;27;20427;-79
2022/12/06 03:42:48;;;;;;;0.40;0.40;;;3.60;99.90;;;;;;5135479;27;20439;-79
2022/12/06 03:45:15;;;;;;;1.00;0.60;;;3.60;99.90;;;;;;5134832;27;20992;-79
2022/12/06 03:47:48;;;;;;;0.30;0.30;;;3.60;99.90;;;;;;5134831;27;20957;-79
2022/12/06 03:50:21;;;;;;;0.30;0.30;;;3.60;99.90;;;;;;5135119;27;20431;-79
2022/12/06 03:52:51;;;;;;;1.07;0.97;;;3.60;99.90;;;;;;5135117;27;20437;-79
2022/12/06 03:55:18;;;;;;;0.30;0.30;;;3.60;99.90;;;;;;5134882;27;20493;-79
2022/12/06 03:57:45;;;;;;;1.10;0.30;;;3.50;99.90;;;;;;5135002;27;20449;-79
2022/12/06 04:00:13;;;;;;;0.50;0.50;;;3.50;99.90;;;;;;5134647;27;20450;-79
2022/12/06 04:02:40;;;;;;;1.13;0.50;;;3.50;99.90;;;;;;5134633;27;20946;-79
2022/12/06 04:05:07;;;;;;;0.30;0.30;;;3.50;99.90;;;;;;5134814;27;20829;-79
2022/12/06 04:07:35;;;;;;;2.80;0.57;;;3.50;99.90;;;;;;5134467;27;20450;-79
2022/12/06 04:10:02;;;;;;;0.80;0.60;;;3.50;99.90;;;;;;5134790;27;20458;-79
2022/12/06 04:15:14;;;;;;;0.60;0.30;;;3.50;99.90;;;;;;5134527;27;20519;-79
2022/12/06 04:23:02;;;;;;;0.80;0.50;;;3.40;99.90;;;;;;5134382;27;20836;-79
2022/12/06 04:23:17;;;;;;;0.40;0.33;;;3.40;99.90;;;;;;5134171;27;20448;-79
2022/12/06 04:25:44;;;;;;;0.50;0.40;;;3.40;99.90;;;;;;5134229;27;20973;-79
2022/12/06 04:39:09;;;;;;;0.30;0.30;;;3.50;99.90;;;;;;5134235;28;20406;-79
2022/12/06 04:44:20;;;;;;;0.40;0.30;;;3.50;99.90;;;;;;5141177;27;20406;-79
2022/12/06 04:46:47;;;;;;;0.60;0.40;;;3.50;99.90;;;;;;5140835;27;20977;-79
2022/12/06 04:49:14;;;;;;;0.80;0.50;;;3.40;99.90;;;;;;5141201;27;20451;-79
2022/12/06 04:51:41;;;;;;;0.33;0.30;;;3.40;99.90;;;;;;5141147;27;20442;-79
2022/12/06 04:54:09;;;;;;;0.30;0.30;;;3.50;99.90;;;;;;5141078;27;20484;-79
2022/12/06 04:56:36;;;;;;;0.40;0.40;;;3.50;99.90;;;;;;5141083;27;20462;-79
2022/12/06 04:59:03;;;;;;;0.40;0.40;;;3.50;99.90;;;;;;5141093;27;20453;-79
2022/12/06 05:01:30;;;;;;;2.67;1.10;;;3.50;99.90;;;;;;5140982;27;20454;-79
2022/12/06 05:03:57;;;;;;;0.40;0.40;;;3.50;99.90;;;;;;5140707;27;20828;-79
2022/12/06 05:06:23;;;;;;;1.57;0.77;;;3.50;99.90;;;;;;5140618;27;20814;-79
2022/12/06 05:08:50;;;;;;;0.30;0.30;;;3.40;99.90;;;;;;5141205;27;20452;-79
2022/12/06 05:11:18;;;;;;;0.30;0.30;;;3.40;99.90;;;;;;5140889;27;20453;-78
2022/12/06 05:13:45;;;;;;;0.40;0.40;;;3.50;99.90;;;;;;5142778;27;20860;-78
2022/12/06 05:16:12;;;;;;;0.30;0.30;;;3.40;99.90;;;;;;5145133;27;20997;-79
2022/12/06 05:18:39;;;;;;;1.07;0.60;;;3.40;99.90;;;;;;5144714;27;20453;-78
2022/12/06 05:21:08;;;;;;;0.30;0.30;;;3.50;99.90;;;;;;5142839;27;20565;-79
2022/12/06 05:23:36;;;;;;;1.13;0.77;;;3.30;99.90;;;;;;5140621;27;20983;-79
2022/12/06 05:26:05;;;;;;;0.97;0.97;;;3.30;99.90;;;;;;5140813;27;20471;-80
2022/12/06 05:28:34;;;;;;;0.30;0.30;;;3.20;99.90;;;;;;5140800;27;20449;-80
2022/12/06 05:31:01;;;;;;;0.40;0.40;;;3.30;99.90;;;;;;5140774;27;20469;-80
2022/12/06 05:33:29;;;;;;;0.40;0.40;;;3.30;99.90;;;;;;5140728;27;20446;-80
2022/12/06 05:35:56;;;;;;;0.40;0.40;;;3.40;99.90;;;;;;5140663;27;20467;-80
2022/12/06 05:38:22;;;;;;;1.17;0.70;;;3.40;99.90;;;;;;5140781;27;20469;-80
2022/12/06 05:40:49;;;;;;;0.40;0.40;;;3.40;99.90;;;;;;5140477;27;20431;-80
2022/12/06 05:43:17;;;;;;;1.10;0.40;;;3.40;99.90;;;;;;5140691;27;20453;-80
2022/12/06 05:45:45;;;;;;;0.40;0.40;;;3.30;99.90;;;;;;5140616;27;20543;-79
2022/12/06 05:48:12;;;;;;;0.30;0.30;;;3.30;99.90;;;;;;5140550;27;20454;-80
2022/12/06 05:50:39;;;;;;;0.50;0.50;;;3.30;99.90;;;;;;5140637;27;20442;-80
2022/12/06 05:53:06;;;;;;;1.10;0.43;;;3.40;99.90;;;;;;5139654;27;20825;-79
2022/12/06 05:55:32;;;;;;;0.53;0.50;;;3.50;99.90;;;;;;5136290;27;20489;-80
2022/12/06 05:57:59;;;;;;;0.50;0.50;;;3.50;99.90;;;;;;5137322;27;20443;-80
2022/12/06 06:00:26;;;;;;;0.43;0.40;;;3.50;99.90;;;;;;5137826;27;20446;-80
2022/12/06 06:02:54;;;;;;;0.30;0.30;;;3.50;99.90;;;;;;5137146;27;20462;-80
2022/12/06 06:05:21;;;;;;;0.50;0.50;;;3.50;99.90;;;;;;5137108;27;20462;-80
2022/12/06 06:07:48;;;;;;;3.03;0.77;;;3.50;99.90;;;;;;5137163;27;20522;-80
2022/12/06 06:10:15;;;;;;;0.40;0.40;;;3.40;99.90;;;;;;5137082;27;20443;-80
2022/12/06 06:12:43;;;;;;;0.60;0.40;;;3.50;99.90;;;;;;5137092;27;20468;-80
2022/12/06 06:15:11;;;;;;;0.63;0.63;;;3.40;99.90;;;;;;5136566;27;20479;-79
2022/12/06 06:17:38;;;;;;;0.30;0.30;;;3.50;99.90;;;;;;5136917;27;20453;-79
2022/12/06 06:20:08;;;;;;;1.53;0.77;;;3.60;99.90;;;;;;5136362;27;20972;-80
2022/12/06 06:22:36;;;;;;;0.80;0.80;;;3.50;99.90;;;;;;5136566;27;20427;-80
2022/12/06 06:25:04;;;;;;;0.30;0.30;;;3.50;99.90;;;;;;5137288;27;20459;-80
2022/12/06 06:27:33;;;;;;;0.43;0.43;;;3.50;99.90;;;;;;5136799;27;20812;-79
2022/12/06 06:30:00;;;;;;;0.30;0.30;;;3.50;99.90;;;;;;5136722;27;20439;-79
2022/12/06 06:32:27;;;;;;;0.70;0.50;;;3.40;99.90;;;;;;5136404;27;20952;-80
2022/12/06 06:34:53;;;;;;;0.30;0.30;;;3.40;99.90;;;;;;5136131;27;21024;-80
2022/12/06 06:37:21;;;;;;;1.80;0.40;;;3.40;99.90;;;;;;5136617;27;20431;-80
2022/12/06 06:39:48;;;;;;;0.30;0.20;;;3.40;99.90;;;;;;5136458;27;20442;-80
2022/12/06 06:42:16;;;;;;;0.90;0.40;;;3.40;99.90;;;;;;5136509;27;20461;-79
2022/12/06 06:44:43;;;;;;;0.50;0.30;;;3.40;99.90;;;;;;5136375;27;20787;-79
2022/12/06 06:47:10;;;;;;;0.97;0.40;;;3.40;99.90;;;;;;5136069;27;20821;-80
2022/12/06 06:49:37;;;;;;;0.50;0.40;;;3.50;99.90;;;;;;5136308;27;20502;-80
2022/12/06 06:52:04;;;;;;;0.30;0.30;;;3.50;99.90;;;;;;5135973;27;20945;-79
2022/12/06 06:54:32;;;;;;;0.30;0.30;;;3.50;99.90;;;;;;5136053;27;20485;-80
2022/12/06 06:56:59;;;;;;;0.53;0.53;;;3.40;99.90;;;;;;5136190;27;20446;-79
2022/12/06 06:59:26;;;;;;;0.57;0.57;;;3.40;99.90;;;;;;5136102;27;20453;-80
2022/12/06 07:01:53;;;;;;;0.30;0.30;;;3.50;99.90;;;;;;5136111;27;20443;-79
2022/12/06 07:04:19;;;;;;;0.50;0.40;;;3.40;99.90;;;;;;5136095;27;20443;-80
2022/12/06 07:06:46;;;;;;;0.30;0.30;;;3.50;99.90;;;;;;5135557;27;20463;-80
2022/12/06 07:09:13;;;;;;;0.37;0.37;;;3.50;99.90;;;;;;5136012;27;20450;-80
2022/12/06 07:11:41;;;;;;;0.50;0.50;;;3.50;99.90;;;;;;5135930;27;20449;-79
2022/12/06 07:14:08;;;;;;;0.60;0.47;;;3.50;99.90;;;;;;5135733;27;20493;-80
2022/12/06 07:16:35;;;;;;;0.70;0.57;;;3.50;99.90;;;;;;5135430;27;20473;-79
2022/12/06 07:19:01;;;;;;;0.40;0.40;;;3.50;99.90;;;;;;5135749;27;20940;-80
2022/12/06 07:21:28;;;;;;;0.70;0.70;;;3.50;99.90;;;;;;5135568;27;20500;-79
2022/12/06 07:23:55;;;;;;;0.50;0.50;;;3.50;99.90;;;;;;5135636;27;20945;-79
2022/12/06 07:26:23;;;;;;;0.63;0.63;;;3.40;99.90;;;;;;5135766;27;20860;-80
2022/12/06 07:28:51;;;;;;;0.30;0.30;;;3.40;99.90;;;;;;5135640;27;20531;-80
2022/12/06 07:31:20;;;;;;;0.40;0.40;;;3.40;99.90;;;;;;5135687;27;20499;-80
2022/12/06 07:33:48;;;;;;;0.40;0.40;;;3.60;99.90;;;;;;5135063;27;20797;-80
2022/12/06 07:36:16;;;;;;;0.40;0.40;;;3.50;99.90;;;;;;5135363;27;20482;-79
2022/12/06 07:38:43;;;;;;;0.30;0.30;;;3.50;99.90;;;;;;5135290;27;20443;-80
2022/12/06 07:46:43;;;;;;;0.40;0.30;;;3.60;99.90;;;;;;5135229;27;20568;-79
2022/12/06 07:49:10;;;;;;;0.80;0.50;;;3.60;99.90;;;;;;5135340;27;20442;-79
2022/12/06 07:51:38;;;;;;;0.57;0.40;;;3.60;99.90;;;;;;5135103;27;20819;-79
2022/12/06 07:54:05;;;;;;;0.77;0.47;;;3.60;99.90;;;;;;5135124;27;20535;-79
2022/12/06 07:56:32;;;;;;;0.47;0.47;;;3.60;99.90;;;;;;5134657;27;20813;-79
2022/12/06 07:59:01;;;;;;;1.03;0.93;;;3.50;99.90;;;;;;5134980;27;20452;-78
2022/12/06 08:01:28;;;;;;;0.40;0.40;;;3.60;99.90;;;;;;5134948;27;20443;-80
2022/12/06 08:03:55;;;;;;;1.37;1.27;;;3.60;99.90;;;;;;5135032;27;20451;-80
2022/12/06 08:06:22;;;;;;;0.30;0.30;;;3.60;99.90;;;;;;5135271;27;20508;-80
2022/12/06 08:08:49;;;;;;;0.50;0.50;;;3.60;99.90;;;;;;5134850;27;20455;-80
2022/12/06 08:11:16;;;;;;;0.80;0.63;;;3.70;99.90;;;;;;5134540;27;20443;-80
2022/12/06 08:13:42;;;;;;;0.30;0.30;;;3.70;99.90;;;;;;5135089;27;20455;-80
2022/12/06 08:16:12;;;;;;;0.40;0.30;;;3.70;99.90;;;;;;5134133;27;20483;-80
2022/12/06 08:18:39;;;;;;;0.37;0.33;;;3.80;99.90;;;;;;5134360;27;20453;-80
2022/12/06 08:21:07;;;;;;;0.40;0.30;;;3.80;99.90;;;;;;5134360;27;20482;-80
2022/12/06 08:23:34;;;;;;;0.80;0.40;;;3.80;99.90;;;;;;5134682;27;20451;-80
2022/12/06 08:26:03;;;;;;;0.40;0.40;;;3.80;99.90;;;;;;5134670;27;20455;-80
2022/12/06 08:28:30;;;;;;;0.67;0.50;;;3.90;99.90;;;;;;5140739;27;20453;-79
2022/12/06 08:30:58;;;;;;;5.60;0.60;;;3.90;99.90;;;;;;5139865;27;20522;-80
2022/12/06 08:33:27;;;;;;;0.30;0.20;;;3.90;99.90;;;;;;5140130;27;20446;-78
2022/12/06 08:35:53;;;;;;;0.30;0.30;;;3.90;99.90;;;;;;5137343;27;20569;-78
2022/12/06 08:38:20;;;;;;;0.50;0.50;;;4.00;99.90;;;;;;5139475;27;20447;-78
2022/12/06 08:40:47;;;;;;;0.73;0.40;;;4.00;99.90;;;;;;5138896;27;20530;-79
2022/12/06 08:43:14;;;;;;;0.40;0.40;;;4.00;99.90;;;;;;5134718;27;20451;-79
2022/12/06 08:45:41;;;;;;;0.30;0.30;;;4.00;99.90;;;;;;5134434;27;20459;-78
2022/12/06 08:48:07;;;;;;;0.60;0.40;;;4.10;99.90;;;;;;5134432;27;20446;-79
2022/12/06 08:50:38;;;;;;;0.90;0.70;;;4.10;99.90;;;;;;5134336;27;20447;-79
2022/12/06 08:53:05;;;;;;;1.00;0.77;;;4.10;99.90;;;;;;5134317;27;20431;-79
2022/12/06 08:55:31;;;;;;;0.50;0.40;;;4.10;99.90;;;;;;5134175;27;20492;-79
2022/12/06 08:57:58;;;;;;;0.40;0.40;;;4.20;99.90;;;;;;5134347;27;20443;-79
2022/12/06 09:00:25;;;;;;;1.07;0.77;;;4.20;99.90;;;;;;5134360;27;20438;-79
2022/12/06 09:02:52;;;;;;;0.40;0.37;;;4.20;99.90;;;;;;5134254;27;20446;-79
2022/12/06 09:05:19;;;;;;;1.33;0.70;;;4.20;99.90;;;;;;5134251;27;20463;-79
2022/12/06 09:07:47;;;;;;;0.60;0.60;;;4.30;99.90;;;;;;5134337;27;20515;-79
2022/12/06 09:10:13;;;;;;;2.80;0.70;;;4.30;99.90;;;;;;5134284;27;20805;-78
2022/12/06 09:12:40;;;;;;;0.50;0.33;;;4.30;99.90;;;;;;5134171;27;20450;-79
2022/12/06 09:15:08;;;;;;;0.83;0.30;;;4.40;99.90;;;;;;5133668;27;20482;-79
2022/12/06 09:17:35;;;;;;;0.30;0.30;;;4.40;99.90;;;;;;5133800;27;20805;-79
2022/12/06 09:20:02;;;;;;;0.50;0.50;;;4.40;99.90;;;;;;5133600;27;20443;-79
2022/12/06 09:22:29;;;;;;;1.77;0.97;;;4.40;99.90;;;;;;5133800;27;20915;-79
2022/12/06 09:24:57;;;;;;;1.60;0.57;;;4.40;99.90;;;;;;5133968;27;20462;-79
2022/12/06 09:27:24;;;;;;;0.67;0.40;;;4.50;99.90;;;;;;5133730;27;20917;-79
2022/12/06 09:29:51;;;;;;;0.40;0.40;;;4.50;99.90;;;;;;5137481;27;20438;-79
2022/12/06 09:32:18;;;;;;;0.57;0.37;;;4.50;99.90;;;;;;5137910;27;20526;-78
2022/12/06 09:34:44;;;;;;;0.40;0.37;;;4.60;99.90;;;;;;5137671;27;20446;-79
2022/12/06 09:37:13;;;;;;;0.50;0.30;;;4.60;99.90;;;;;;5137878;27;20819;-78
2022/12/06 09:39:43;;;;;;;0.30;0.30;;;4.60;99.90;;;;;;5137786;27;20445;-78
2022/12/06 09:42:48;;;;;;;0.30;0.30;;;4.60;99.90;;;;;;5138799;27;20522;-78
2022/12/06 09:45:55;;;;;;;0.40;0.40;;;4.70;99.90;;;;;;5137316;27;20830;-79
2022/12/06 09:48:51;;;;;;;1.80;0.70;;;4.70;99.90;;;;;;5137515;27;20430;-78
2022/12/06 09:51:31;;;;;;;0.50;0.40;;;4.80;99.90;;;;;;5134470;27;20457;-78
2022/12/06 09:54:10;;;;;;;0.43;0.43;;;4.80;99.90;;;;;;5137100;27;20430;-79
2022/12/06 09:56:45;;;;;;;0.30;0.30;;;4.90;99.90;;;;;;5137253;27;20478;-78
2022/12/06 09:59:21;;;;;;;0.60;0.60;;;4.90;99.90;;;;;;5137403;27;20426;-78
2022/12/06 10:02:03;;;;;;;0.40;0.40;;;5.00;99.90;;;;;;5137452;27;20437;-78
2022/12/06 10:04:56;;;;;;;0.83;0.60;;;5.10;99.90;;;;;;5137123;27;20423;-78
2022/12/06 10:07:30;;;;;;;0.50;0.40;;;5.10;99.90;;;;;;5137116;27;20429;-79
2022/12/06 10:10:10;;;;;;;0.80;0.80;;;5.00;99.90;;;;;;5137276;27;20789;-79
2022/12/06 10:12:54;;;;;;;0.40;0.30;;;5.10;99.90;;;;;;5137249;27;20434;-79
2022/12/06 10:15:32;;;;;;;0.50;0.50;;;5.10;99.90;;;;;;5136845;27;20486;-82
2022/12/06 10:18:15;;;;;;;2.17;0.70;;;5.20;99.90;;;;;;5137093;27;20930;-78
2022/12/06 10:20:52;;;;;;;0.80;0.70;;;5.20;99.90;;;;;;5136806;27;20477;-78
2022/12/06 10:23:32;;;;;;;0.50;0.33;;;5.20;99.90;;;;;;5136954;27;20444;-78
2022/12/06 10:26:07;;;;;;;1.73;0.57;;;5.20;99.90;;;;;;5137004;27;20454;-79
2022/12/06 10:28:42;;;;;;;2.73;0.77;;;5.20;99.90;;;;;;5136658;27;20989;-79
2022/12/06 10:31:21;;;;;;;2.10;0.37;;;5.20;99.90;;;;;;5136843;27;20438;-79
2022/12/06 10:33:55;;;;;;;0.53;0.53;;;5.10;99.90;;;;;;5136842;27;20423;-79
2022/12/06 10:36:37;;;;;;;3.60;0.70;;;5.10;99.90;;;;;;5136549;27;20854;-79
2022/12/06 10:39:14;;;;;;;0.40;0.40;;;5.00;99.90;;;;;;5136695;27;20427;-79
2022/12/06 10:41:48;;;;;;;3.10;2.53;;;5.00;99.90;;;;;;5135769;27;20434;-78
2022/12/06 10:44:20;;;;;;;1.10;0.80;;;5.00;99.90;;;;;;5136514;27;20436;-79
2022/12/06 10:47:05;;;;;;;0.60;0.60;;;5.00;99.90;;;;;;5136454;27;20469;-79
2022/12/06 10:49:49;;;;;;;0.40;0.40;;;5.10;99.90;;;;;;5136436;27;20435;-79
2022/12/06 10:52:38;;;;;;;0.60;0.50;;;5.10;99.90;;;;;;5136155;27;20439;-79
2022/12/06 10:55:19;;;;;;;0.60;0.60;;;5.10;99.90;;;;;;5136192;27;20473;-79
2022/12/06 10:57:49;;;;;;;0.97;0.87;;;5.10;99.90;;;;;;5136261;27;20429;-79
2022/12/06 11:00:18;;;;;;;1.13;1.03;;;5.10;99.90;;;;;;5136152;27;20453;-80
2022/12/06 11:02:53;;;;;;;5.10;1.17;;;5.10;99.90;;;;;;5136074;27;20960;-79
2022/12/06 11:05:26;;;;;;;0.87;0.87;;;5.10;99.90;;;;;;5135991;27;20466;-80
2022/12/06 11:07:58;;;;;;;1.63;0.50;;;5.00;99.90;;;;;;5135802;27;20902;-80
2022/12/06 11:10:28;;;;;;;1.00;0.67;;;5.10;99.90;;;;;;5136057;27;20438;-80
2022/12/06 11:13:00;;;;;;;1.33;1.17;;;5.10;99.90;;;;;;5136860;27;20771;-79
2022/12/06 11:15:32;;;;;;;1.03;0.50;;;5.10;99.90;;;;;;5135814;27;20490;-80
2022/12/06 11:18:05;;;;;;;0.40;0.40;;;5.10;99.90;;;;;;5135786;27;20435;-80
2022/12/06 11:20:38;;;;;;;0.87;0.60;;;5.10;99.90;;;;;;5135529;27;20531;-80
2022/12/06 11:23:12;;;;;;;0.40;0.33;;;5.10;99.90;;;;;;5135846;27;20504;-80
2022/12/06 11:25:50;;;;;;;3.70;0.63;;;5.20;99.90;;;;;;5135562;27;20464;-79
2022/12/06 11:28:32;;;;;;;1.17;1.07;;;5.10;99.90;;;;;;5135598;27;20430;-78
2022/12/06 11:30:59;;;;;;;1.87;0.70;;;5.00;99.90;;;;;;5135316;27;20438;-79
2022/12/06 11:33:32;;;;;;;1.10;0.87;;;5.10;99.90;;;;;;5135573;27;20473;-79
2022/12/06 11:36:02;;;;;;;1.50;0.40;;;5.10;99.90;;;;;;5135490;27;20479;-79
2022/12/06 11:38:29;;;;;;;0.87;0.50;;;5.10;99.90;;;;;;5135507;27;20434;-78
2022/12/06 11:40:56;;;;;;;1.13;0.70;;;5.10;99.90;;;;;;5135348;27;20533;-78
2022/12/06 11:43:26;;;;;;;2.20;0.70;;;5.10;99.90;;;;;;5135329;27;20447;-78
2022/12/06 11:45:55;;;;;;;1.20;1.07;;;5.10;99.90;;;;;;5135220;27;20470;-79
2022/12/06 11:48:27;;;;;;;1.80;0.77;;;5.10;99.90;;;;;;5135300;27;20431;-79
2022/12/06 11:50:55;;;;;;;3.27;1.00;;;5.20;99.90;;;;;;5134755;27;20458;-79
2022/12/06 11:53:27;;;;;;;0.40;0.40;;;5.20;99.90;;;;;;5134032;27;20925;-79
2022/12/06 11:55:57;;;;;;;0.57;0.57;;;5.20;99.90;;;;;;5135049;27;20497;-79
2022/12/06 11:58:29;;;;;;;0.70;0.57;;;5.20;99.90;;;;;;5134797;27;20439;-79
2022/12/06 12:00:58;;;;;;;0.90;0.80;;;5.20;99.90;;;;;;5134995;27;20459;-79
2022/12/06 12:03:30;;;;;;;1.40;1.30;;;5.20;99.90;;;;;;5134671;27;20942;-79
2022/12/06 12:06:26;;;;;;;3.03;1.10;;;5.20;99.90;;;;;;5134587;27;20465;-80
2022/12/06 12:09:00;;;;;;;0.30;0.30;;;5.20;99.90;;;;;;5124460;27;20458;-80
2022/12/06 12:11:29;;;;;;;0.47;0.47;;;5.20;99.90;;;;;;5135452;27;20459;-80
2022/12/06 12:14:00;;;;;;;0.60;0.60;;;5.20;99.90;;;;;;5134772;27;20980;-80
2022/12/06 12:16:31;;;;;;;1.10;0.80;;;5.10;99.90;;;;;;5134658;27;20505;-80
2022/12/06 12:19:01;;;;;;;2.30;1.13;;;5.10;99.90;;;;;;5135048;27;20902;-79
2022/12/06 12:21:36;;;;;;;1.17;0.60;;;5.00;99.90;;;;;;5134368;27;20506;-80
2022/12/06 12:24:03;;;;;;;0.97;0.80;;;5.00;99.90;;;;;;5134697;27;20456;-79
2022/12/06 12:26:40;;;;;;;0.60;0.60;;;5.10;99.90;;;;;;5134610;27;20470;-80
2022/12/06 12:29:16;;;;;;;1.03;0.67;;;5.10;99.90;;;;;;5135024;27;20442;-80
2022/12/06 12:31:55;;;;;;;3.33;0.50;;;5.00;99.90;;;;;;5134300;27;20429;-80
2022/12/06 12:34:23;;;;;;;0.90;0.90;;;5.00;99.90;;;;;;5134603;27;20435;-80
2022/12/06 12:36:53;;;;;;;1.33;0.63;;;5.00;99.90;;;;;;5134372;27;20491;-79
2022/12/06 12:39:28;;;;;;;0.50;0.50;;;5.10;99.90;;;;;;5134605;27;20445;-79
2022/12/06 12:41:54;;;;;;;0.40;0.40;;;5.10;99.90;;;;;;5134526;27;20427;-79
2022/12/06 12:44:25;;;;;;;0.90;0.50;;;5.10;99.90;;;;;;5134445;27;20443;-80
2022/12/06 12:46:55;;;;;;;0.70;0.50;;;5.10;99.90;;;;;;5134004;27;20465;-79
2022/12/06 12:49:26;;;;;;;1.27;0.50;;;5.10;99.90;;;;;;5134388;27;20443;-80
2022/12/06 12:51:55;;;;;;;0.70;0.70;;;5.10;99.90;;;;;;5134452;27;20431;-80
2022/12/06 12:54:26;;;;;;;0.83;0.50;;;5.10;99.90;;;;;;5134491;27;20433;-79
2022/12/06 12:56:54;;;;;;;0.30;0.30;;;5.10;99.90;;;;;;5134180;27;20490;-79
2022/12/06 12:59:23;;;;;;;1.17;0.97;;;5.10;99.90;;;;;;5134355;27;20449;-79
2022/12/06 13:01:55;;;;;;;1.63;1.23;;;5.00;99.90;;;;;;5134220;27;20443;-79
2022/12/06 13:04:43;;;;;;;0.40;0.40;;;5.10;99.90;;;;;;5137037;27;20435;-79
2022/12/06 13:07:20;;;;;;;0.60;0.60;;;5.00;99.90;;;;;;5138062;27;20929;-79
2022/12/06 13:09:56;;;;;;;1.33;0.43;;;4.90;99.90;;;;;;5138063;27;20925;-80
2022/12/06 13:12:29;;;;;;;0.30;0.30;;;5.00;99.90;;;;;;5138013;27;20429;-80
2022/12/06 13:15:00;;;;;;;0.57;0.30;;;4.90;99.90;;;;;;5137867;27;20477;-79
2022/12/06 13:17:29;;;;;;;0.40;0.40;;;5.00;99.90;;;;;;5138112;27;20471;-79
2022/12/06 13:19:55;;;;;;;1.47;1.13;;;4.90;99.90;;;;;;5138277;27;20457;-78
2022/12/06 13:22:27;;;;;;;0.30;0.30;;;4.90;99.90;;;;;;5137511;27;20474;-79
2022/12/06 13:25:00;;;;;;;0.50;0.33;;;4.90;99.90;;;;;;5137935;27;20472;-78
2022/12/06 13:27:32;;;;;;;1.37;1.27;;;4.80;99.90;;;;;;5137769;27;20426;-79
2022/12/06 13:30:03;;;;;;;0.30;0.30;;;4.80;99.90;;;;;;5140897;27;20423;-79
2022/12/06 13:32:36;;;;;;;0.30;0.30;;;4.80;99.90;;;;;;5146155;27;20427;-78
2022/12/06 13:35:06;;;;;;;0.40;0.40;;;4.70;99.90;;;;;;5145067;27;20473;-78
2022/12/06 13:37:41;;;;;;;0.60;0.60;;;4.70;99.90;;;;;;5144985;27;20488;-78
2022/12/06 13:40:44;;;;;;;0.40;0.30;;;4.70;99.90;;;;;;5146304;27;20495;-78